createdAt,value
2019-03-27T00:03:34.609Z,73.87
2019-03-27T00:06:03.421Z,73.59
2019-03-27T00:08:32.273Z,73.93
2019-03-27T00:11:01.361Z,75.18
2019-03-27T00:13:30.152Z,74.23
2019-03-27T00:19:01.278Z,73.63
2019-03-27T00:21:29.802Z,73.13
2019-03-27T00:27:01.686Z,74.23
2019-03-27T00:29:30.552Z,74.09
2019-03-27T00:32:39.460Z,75.03
2019-03-27T00:41:30.277Z,75.11
2019-03-27T00:47:08.642Z,72.35
2019-03-27T00:49:37.471Z,72.18
2019-03-27T00:52:06.682Z,72.58
2019-03-27T00:54:35.893Z,72.55
2019-03-27T00:57:04.717Z,72.55
2019-03-27T01:00:13.378Z,71.86
2019-03-27T01:03:00.911Z,71.68
2019-03-27T01:05:29.390Z,72.22
2019-03-27T01:14:00.622Z,72.53
2019-03-27T01:16:29.462Z,72.15
2019-03-27T01:18:58.561Z,72.41
2019-03-27T01:21:27.607Z,72.78
2019-03-27T01:23:55.331Z,73.05
2019-03-27T01:26:42.885Z,73.31
2019-03-27T01:29:12.036Z,73.88
2019-03-27T01:34:42.764Z,74.06
2019-03-27T01:37:11.986Z,74.45
2019-03-27T01:39:41.198Z,73.86
2019-03-27T01:42:09.982Z,74.69
2019-03-27T01:44:38.400Z,74.35
2019-03-27T01:47:07.154Z,74.14
2019-03-27T01:52:56.747Z,74.55
2019-03-27T01:55:25.513Z,74.79
2019-03-27T01:57:54.331Z,75.04
2019-03-27T02:00:23.442Z,75.41
2019-03-27T02:02:52.262Z,75.54
2019-03-27T02:05:20.856Z,75.79
2019-03-27T02:07:49.387Z,76.25
2019-03-27T02:10:18.142Z,76.56
2019-03-27T02:12:47.061Z,77.16
2019-03-27T02:15:16.286Z,77.07
2019-03-27T02:17:45.027Z,77.33
2019-03-27T02:20:14.283Z,77.45
2019-03-27T02:22:43.436Z,77.76
2019-03-27T02:25:12.376Z,77.36
2019-03-27T02:27:41.171Z,76.78
2019-03-27T02:30:49.667Z,76.95
2019-03-27T02:33:30.089Z,77.41
2019-03-27T02:39:00.105Z,78.51
2019-03-27T02:41:29.243Z,78.23
2019-03-27T02:43:58.057Z,78.83
2019-03-27T02:46:26.937Z,78.63
2019-03-27T02:48:56.198Z,78.49
2019-03-27T02:51:25.281Z,78.69
2019-03-27T02:56:35.450Z,78.91
2019-03-27T02:59:04.551Z,79.36
2019-03-27T03:01:51.433Z,79.52
2019-03-27T03:04:20.654Z,79.25
2019-03-27T03:06:49.875Z,79.03
2019-03-27T03:09:18.631Z,78.42
2019-03-27T03:11:58.826Z,78.43
2019-03-27T03:17:27.459Z,78.35
2019-03-27T03:19:55.986Z,79.04
2019-03-27T03:22:36.707Z,79.56
2019-03-27T03:25:45.373Z,79.46
2019-03-27T03:28:13.882Z,80.00
2019-03-27T03:33:44.790Z,80.60
2019-03-27T03:39:46.592Z,80.30
2019-03-27T03:42:15.429Z,79.96
2019-03-27T03:44:44.531Z,80.69
2019-03-27T03:47:13.357Z,80.19
2019-03-27T03:49:42.571Z,80.08
2019-03-27T03:52:22.676Z,80.49
2019-03-27T03:55:31.540Z,79.90
2019-03-27T04:10:19.369Z,81.42
2019-03-27T04:13:07.263Z,82.06
2019-03-27T04:15:36.160Z,82.66
2019-03-27T04:21:27.103Z,83.88
2019-03-27T04:24:02.854Z,83.99
2019-03-27T04:26:33.477Z,83.56
2019-03-27T04:29:08.601Z,83.40
2019-03-27T04:31:56.151Z,83.68
2019-03-27T04:34:24.702Z,84.00
2019-03-27T04:36:53.808Z,84.17
2019-03-27T04:42:29.879Z,84.57
2019-03-27T04:44:58.302Z,84.64
2019-03-27T04:47:32.531Z,84.39
2019-03-27T04:50:04.637Z,84.02
2019-03-27T04:52:44.673Z,83.97
2019-03-27T04:55:13.903Z,84.00
2019-03-27T04:57:54.082Z,83.47
2019-03-27T05:00:23.257Z,84.01
2019-03-27T05:02:52.068Z,84.27
2019-03-27T05:05:20.504Z,84.35
2019-03-27T05:08:28.687Z,84.38
2019-03-27T05:10:57.230Z,84.62
2019-03-27T05:13:26.423Z,84.66
2019-03-27T05:16:06.670Z,85.55
2019-03-27T05:18:35.389Z,85.95
2019-03-27T05:21:03.878Z,86.30
2019-03-27T05:26:34.201Z,86.77
2019-03-27T05:29:03.278Z,86.82
2019-03-27T05:31:31.771Z,87.06
2019-03-27T05:34:00.597Z,87.01
2019-03-27T05:45:13.513Z,87.02
2019-03-27T05:47:42.842Z,86.62
2019-03-27T05:50:23.515Z,85.94
2019-03-27T05:53:04.262Z,86.02
2019-03-27T05:58:35.904Z,86.33
2019-03-27T06:04:07.037Z,86.41
2019-03-27T06:06:36.279Z,86.86
2019-03-27T06:12:26.617Z,87.16
2019-03-27T06:14:55.802Z,86.99
2019-03-27T06:17:24.977Z,87.35
2019-03-27T06:20:33.472Z,87.09
2019-03-27T06:23:01.967Z,86.63
2019-03-27T06:25:31.248Z,87.12
2019-03-27T06:27:59.431Z,86.80
2019-03-27T06:33:37.553Z,86.95
2019-03-27T06:36:06.442Z,86.44
2019-03-27T06:38:35.588Z,85.95
2019-03-27T06:41:16.515Z,85.70
2019-03-27T06:44:16.687Z,85.87
2019-03-27T06:46:45.933Z,85.67
2019-03-27T06:49:54.816Z,85.28
2019-03-27T06:52:34.851Z,85.15
2019-03-27T06:55:43.508Z,84.25
2019-03-27T06:58:12.614Z,83.36
2019-03-27T07:00:41.677Z,83.19
2019-03-27T07:03:10.489Z,82.10
2019-03-27T07:05:39.724Z,82.35
2019-03-27T07:11:21.853Z,83.35
2019-03-27T07:13:50.677Z,83.54
2019-03-27T07:16:59.549Z,83.54
2019-03-27T07:19:28.822Z,83.43
2019-03-27T07:28:08.125Z,82.63
2019-03-27T07:30:36.927Z,81.86
2019-03-27T07:33:06.166Z,82.46
2019-03-27T07:36:15.162Z,82.53
2019-03-27T07:38:54.812Z,83.18
2019-03-27T07:41:42.335Z,82.89
2019-03-27T07:44:11.538Z,82.09
2019-03-27T07:50:01.132Z,80.74
2019-03-27T07:52:41.837Z,81.97
2019-03-27T07:55:50.342Z,80.85
2019-03-27T08:01:20.682Z,81.15
2019-03-27T08:03:49.577Z,82.07
2019-03-27T08:06:18.689Z,82.19
2019-03-27T08:08:47.787Z,82.23
2019-03-27T08:11:16.717Z,82.12
2019-03-27T08:13:45.989Z,82.50
2019-03-27T08:16:14.886Z,82.28
2019-03-27T08:18:43.725Z,82.33
2019-03-27T08:21:12.663Z,81.94
2019-03-27T08:23:40.743Z,81.66
2019-03-27T08:26:08.856Z,80.85
2019-03-27T08:28:37.819Z,80.70
2019-03-27T08:31:06.037Z,80.61
2019-03-27T08:33:35.208Z,80.46
2019-03-27T08:36:04.323Z,79.08
2019-03-27T08:38:33.217Z,79.88
2019-03-27T08:41:02.141Z,80.91
2019-03-27T08:43:30.191Z,81.05
2019-03-27T08:45:59.531Z,80.11
2019-03-27T08:48:28.284Z,80.14
2019-03-27T08:50:57.638Z,79.11
2019-03-27T08:53:26.527Z,78.42
2019-03-27T08:55:55.689Z,76.91
2019-03-27T08:58:24.574Z,75.93
2019-03-27T09:01:24.692Z,75.61
2019-03-27T09:03:53.809Z,75.63
2019-03-27T09:06:33.161Z,75.88
2019-03-27T09:08:59.418Z,74.14
2019-03-27T09:11:28.442Z,74.13
2019-03-27T09:13:57.293Z,73.46
2019-03-27T09:16:26.463Z,73.63
2019-03-27T09:19:36.348Z,72.31
2019-03-27T09:22:15.747Z,69.73
2019-03-27T09:24:44.570Z,71.94
2019-03-27T09:27:13.417Z,70.92
2019-03-27T09:29:42.220Z,70.37
2019-03-27T09:32:23.078Z,70.30
2019-03-27T09:34:52.414Z,67.71
2019-03-27T09:40:24.273Z,67.31
2019-03-27T09:43:11.778Z,65.62
2019-03-27T09:48:50.119Z,63.39
2019-03-27T09:51:18.980Z,62.45
2019-03-27T09:53:47.878Z,63.12
2019-03-27T09:56:19.463Z,63.10
2019-03-27T09:58:54.279Z,63.59
2019-03-27T10:04:32.817Z,65.06
2019-03-27T10:07:01.209Z,65.51
2019-03-27T10:12:30.480Z,66.30
2019-03-27T10:14:59.574Z,64.67
2019-03-27T10:20:27.350Z,64.23
2019-03-27T10:22:56.561Z,64.55
2019-03-27T10:25:25.462Z,61.79
2019-03-27T10:27:53.973Z,58.46
2019-03-27T10:30:23.102Z,57.00
2019-03-27T10:33:32.060Z,55.02
2019-03-27T10:36:01.012Z,56.68
2019-03-27T10:38:51.211Z,59.01
2019-03-27T10:41:19.713Z,61.34
2019-03-27T10:43:48.917Z,62.59
2019-03-27T10:46:17.707Z,64.10
2019-03-27T10:48:52.767Z,60.81
2019-03-27T10:51:17.560Z,59.07
2019-03-27T10:53:46.653Z,58.13
2019-03-27T10:56:15.525Z,56.93
2019-03-27T10:58:44.403Z,58.73
2019-03-27T11:01:13.598Z,56.92
2019-03-27T11:03:42.260Z,54.46
2019-03-27T11:06:11.068Z,55.93
2019-03-27T11:08:39.520Z,57.33
2019-03-27T11:11:08.754Z,58.08
2019-03-27T11:13:37.254Z,59.83
2019-03-27T11:16:06.064Z,60.62
2019-03-27T11:18:34.497Z,60.66
2019-03-27T11:21:03.402Z,60.66
2019-03-27T11:23:32.713Z,60.82
2019-03-27T11:26:01.588Z,61.44
2019-03-27T11:28:30.456Z,61.63
2019-03-27T11:34:19.957Z,59.29
2019-03-27T11:40:29.296Z,47.58
2019-03-27T11:42:57.825Z,44.91
2019-03-27T11:45:26.666Z,43.76
2019-03-27T11:47:55.452Z,46.33
2019-03-27T11:51:03.896Z,46.17
2019-03-27T11:54:12.843Z,47.33
2019-03-27T11:56:41.353Z,46.48
2019-03-27T11:59:09.883Z,43.32
2019-03-27T12:01:43.388Z,43.31
2019-03-27T12:04:16.316Z,41.79
2019-03-27T12:06:57.261Z,44.53
2019-03-27T12:09:26.463Z,45.57
2019-03-27T12:11:55.191Z,47.68
2019-03-27T12:14:24.315Z,48.01
2019-03-27T12:16:53.614Z,49.24
2019-03-27T12:19:22.448Z,50.60
2019-03-27T12:21:54.562Z,48.61
2019-03-27T12:24:29.022Z,48.04
2019-03-27T12:27:37.529Z,48.45
2019-03-27T12:33:26.955Z,48.55
2019-03-27T12:35:55.714Z,52.16
2019-03-27T12:41:38.212Z,55.12
2019-03-27T12:44:06.463Z,55.30
2019-03-27T12:46:34.956Z,56.99
2019-03-27T12:49:04.303Z,58.24
2019-03-27T12:51:33.458Z,57.68
2019-03-27T12:54:02.419Z,58.17
2019-03-27T12:57:11.365Z,58.70
2019-03-27T12:59:40.639Z,60.06
2019-03-27T13:05:19.035Z,59.46
2019-03-27T13:07:50.158Z,59.04
2019-03-27T13:10:24.649Z,57.91
2019-03-27T13:12:54.043Z,56.65
2019-03-27T13:15:22.935Z,56.77
2019-03-27T13:17:51.418Z,54.58
2019-03-27T13:23:22.939Z,51.63
2019-03-27T13:25:51.369Z,51.30
2019-03-27T13:28:20.281Z,52.43
2019-03-27T13:30:49.442Z,54.22
2019-03-27T13:33:18.810Z,55.52
2019-03-27T13:35:47.756Z,56.98
2019-03-27T13:38:16.736Z,57.28
2019-03-27T13:40:46.121Z,57.30
2019-03-27T13:43:15.081Z,56.75
2019-03-27T13:45:43.978Z,58.49
2019-03-27T13:48:12.794Z,57.34
2019-03-27T13:50:41.928Z,57.15
2019-03-27T13:53:10.869Z,57.15
2019-03-27T13:55:39.993Z,57.17
2019-03-27T13:58:08.749Z,58.72
2019-03-27T14:00:37.583Z,59.34
2019-03-27T14:03:26.005Z,59.91
2019-03-27T14:06:06.458Z,60.56
2019-03-27T14:08:35.418Z,60.02
2019-03-27T14:11:44.398Z,60.65
2019-03-27T14:14:12.899Z,60.52
2019-03-27T14:16:41.724Z,61.95
2019-03-27T14:19:10.644Z,60.64
2019-03-27T14:21:55.046Z,60.74
2019-03-27T14:24:22.162Z,60.80
2019-03-27T14:32:54.027Z,59.59
2019-03-27T14:36:02.913Z,58.24
2019-03-27T14:38:31.423Z,58.63
2019-03-27T14:41:00.270Z,57.37
2019-03-27T14:43:41.627Z,55.35
2019-03-27T14:46:10.708Z,55.67
2019-03-27T14:48:39.283Z,54.67
2019-03-27T14:51:08.470Z,55.68
2019-03-27T14:53:37.338Z,57.69
2019-03-27T14:59:27.408Z,56.04
2019-03-27T15:05:37.111Z,55.35
2019-03-27T15:11:07.900Z,56.34
2019-03-27T15:13:36.822Z,56.10
2019-03-27T15:16:06.038Z,56.11
2019-03-27T15:19:14.586Z,56.45
2019-03-27T15:21:43.473Z,58.54
2019-03-27T15:24:12.395Z,59.76
2019-03-27T15:26:41.135Z,59.72
2019-03-27T15:29:10.129Z,60.10
2019-03-27T15:34:19.864Z,60.37
2019-03-27T15:36:49.144Z,60.07
2019-03-27T15:39:18.400Z,62.40
2019-03-27T15:41:47.248Z,63.56
2019-03-27T15:46:56.160Z,64.48
2019-03-27T15:49:24.615Z,64.35
2019-03-27T15:51:53.473Z,64.86
2019-03-27T15:54:22.323Z,65.79
2019-03-27T15:56:51.299Z,66.45
2019-03-27T16:02:48.760Z,67.08
2019-03-27T16:05:17.615Z,67.17
2019-03-27T16:07:46.909Z,67.23
2019-03-27T16:10:18.374Z,66.82
2019-03-27T16:12:46.623Z,66.09
2019-03-27T16:15:55.515Z,66.43
2019-03-27T16:18:36.064Z,66.63
2019-03-27T16:21:05.278Z,67.09
2019-03-27T16:23:34.507Z,66.86
2019-03-27T16:26:03.729Z,66.73
2019-03-27T16:28:32.656Z,66.90
2019-03-27T16:34:12.935Z,68.71
2019-03-27T16:36:42.058Z,68.31
2019-03-27T16:39:51.074Z,68.41
2019-03-27T16:42:20.193Z,68.50
2019-03-27T16:44:49.492Z,68.45
2019-03-27T16:47:30.671Z,68.25
2019-03-27T16:49:59.723Z,68.10
2019-03-27T16:52:29.007Z,68.03
2019-03-27T16:54:57.583Z,67.69
2019-03-27T16:57:26.913Z,67.37
2019-03-27T17:00:15.580Z,67.05
2019-03-27T17:03:03.614Z,67.05
2019-03-27T17:05:32.253Z,67.47
2019-03-27T17:08:01.577Z,68.32
2019-03-27T17:11:10.544Z,69.05
2019-03-27T17:13:39.289Z,69.04
2019-03-27T17:16:08.545Z,69.32
2019-03-27T17:21:37.735Z,70.24
2019-03-27T17:24:05.965Z,70.30
2019-03-27T17:26:34.958Z,70.00
2019-03-27T17:29:43.944Z,70.51
2019-03-27T17:35:14.390Z,71.40
2019-03-27T17:43:54.648Z,71.69
2019-03-27T17:46:23.770Z,72.45
2019-03-27T17:52:13.184Z,72.83
2019-03-27T17:54:42.339Z,73.03
2019-03-27T17:57:11.217Z,73.19
2019-03-27T18:00:20.168Z,72.54
2019-03-27T18:02:49.093Z,72.54
2019-03-27T18:12:00.589Z,73.52
2019-03-27T18:17:49.904Z,73.58
2019-03-27T18:20:19.182Z,74.22
2019-03-27T18:22:48.485Z,74.15
2019-03-27T18:25:57.449Z,74.37
2019-03-27T18:31:27.736Z,75.17
2019-03-27T18:34:36.719Z,75.61
2019-03-27T18:37:36.534Z,75.88
2019-03-27T18:43:27.243Z,77.03
2019-03-27T18:49:06.164Z,77.10
2019-03-27T18:51:47.198Z,77.52
2019-03-27T18:57:17.178Z,77.54
2019-03-27T18:59:46.132Z,77.70
2019-03-27T19:02:26.873Z,77.89
2019-03-27T19:04:55.456Z,78.08
2019-03-27T19:08:04.452Z,78.03
2019-03-27T19:10:33.394Z,77.67
2019-03-27T19:16:04.646Z,77.68
2019-03-27T19:18:33.245Z,77.99
2019-03-27T19:21:02.523Z,77.97
2019-03-27T19:26:44.980Z,78.64
2019-03-27T19:29:45.171Z,79.15
2019-03-27T19:32:33.202Z,79.81
2019-03-27T19:37:23.870Z,80.11
2019-03-27T19:39:52.104Z,80.03
2019-03-27T19:45:40.873Z,80.54
2019-03-27T19:48:09.400Z,80.62
2019-03-27T19:50:38.558Z,80.73
2019-03-27T19:53:07.547Z,80.90
2019-03-27T19:55:48.239Z,81.20
2019-03-27T19:58:17.449Z,81.41
2019-03-27T20:00:46.770Z,81.34
2019-03-27T20:06:36.795Z,81.88
2019-03-27T20:09:46.803Z,82.53
2019-03-27T20:12:16.101Z,82.29
2019-03-27T20:14:44.725Z,81.97
2019-03-27T20:17:13.318Z,82.30
2019-03-27T20:19:42.552Z,82.96
2019-03-27T20:22:11.913Z,83.04
2019-03-27T20:24:41.494Z,82.64
2019-03-27T20:27:51.299Z,82.48
2019-03-27T20:37:03.516Z,83.44
2019-03-27T20:39:32.726Z,83.53
2019-03-27T20:42:41.670Z,84.98
2019-03-27T20:45:10.608Z,85.21
2019-03-27T20:47:39.179Z,85.33
2019-03-27T20:50:08.497Z,84.85
2019-03-27T20:52:37.893Z,84.90
2019-03-27T20:55:07.295Z,84.94
2019-03-27T20:57:36.673Z,84.22
2019-03-27T21:00:46.041Z,83.84
2019-03-27T21:06:28.459Z,84.32
2019-03-27T21:08:57.643Z,84.13
2019-03-27T21:11:26.940Z,84.50
2019-03-27T21:13:55.461Z,83.85
2019-03-27T21:16:24.422Z,83.85
2019-03-27T21:18:52.943Z,83.84
2019-03-27T21:24:23.148Z,83.49
2019-03-27T21:26:52.312Z,83.22
2019-03-27T21:29:21.614Z,82.92
2019-03-27T21:32:30.664Z,82.84
2019-03-27T21:38:20.532Z,83.34
2019-03-27T21:47:01.240Z,83.58
2019-03-27T21:49:49.326Z,83.64
2019-03-27T21:55:42.992Z,83.43
2019-03-27T21:58:17.289Z,83.09
2019-03-27T22:00:46.670Z,83.51
2019-03-27T22:03:36.202Z,83.72
2019-03-27T22:06:05.890Z,83.58
2019-03-27T22:09:14.893Z,84.40
2019-03-27T22:12:03.476Z,84.65
2019-03-27T22:14:53.515Z,84.28
2019-03-27T22:17:23.254Z,83.78
2019-03-27T22:19:52.638Z,83.98
2019-03-27T22:22:41.529Z,84.41
2019-03-27T22:25:09.950Z,85.21
2019-03-27T22:27:39.602Z,86.38
2019-03-27T22:33:11.573Z,85.54
2019-03-27T22:41:44.943Z,85.35
2019-03-27T22:44:14.624Z,85.26
2019-03-27T22:46:43.705Z,84.25
2019-03-27T22:49:12.981Z,83.06
2019-03-27T22:51:42.406Z,85.10
2019-03-27T22:54:11.312Z,85.03
2019-03-27T22:56:52.001Z,84.96
2019-03-27T22:59:41.071Z,84.47
2019-03-27T23:02:10.453Z,84.37
2019-03-27T23:08:11.914Z,84.14
2019-03-27T23:10:53.313Z,84.42
2019-03-27T23:13:41.844Z,84.35
2019-03-27T23:16:11.885Z,84.62
2019-03-27T23:18:59.878Z,85.71
2019-03-27T23:21:47.899Z,85.05
2019-03-27T23:26:56.966Z,85.68
2019-03-27T23:30:06.009Z,84.49
2019-03-27T23:33:14.566Z,84.76
2019-03-27T23:36:24.143Z,84.31
2019-03-27T23:39:32.261Z,84.26
2019-03-27T23:42:01.514Z,84.01
2019-03-27T23:44:31.545Z,82.96
2019-03-27T23:47:20.331Z,84.17
2019-03-27T23:49:49.775Z,84.98
2019-03-27T23:52:37.639Z,84.65
2019-03-27T23:55:18.374Z,84.61
2019-03-27T23:58:28.217Z,84.05
